createdAt,value
2023-01-29T00:00:00.499Z,8.48
2023-01-29T00:02:31.893Z,9.40
2023-01-29T00:05:20.733Z,8.25
2023-01-29T00:07:57.028Z,8.55
2023-01-29T00:10:28.454Z,8.52
2023-01-29T00:12:59.895Z,8.03
2023-01-29T00:15:31.377Z,8.82
2023-01-29T00:18:02.884Z,8.68
2023-01-29T00:20:34.397Z,9.02
2023-01-29T00:23:05.801Z,8.27
2023-01-29T00:25:37.220Z,7.95
2023-01-29T00:28:09.199Z,8.80
2023-01-29T00:30:41.640Z,9.38
2023-01-29T00:33:13.138Z,8.47
2023-01-29T00:35:45.126Z,8.38
2023-01-29T00:38:16.535Z,7.65
2023-01-29T00:40:47.927Z,7.63
2023-01-29T00:43:19.590Z,8.05
2023-01-29T00:45:50.992Z,8.60
2023-01-29T00:48:22.409Z,9.18
2023-01-29T00:50:53.851Z,8.43
2023-01-29T00:53:25.354Z,8.73
2023-01-29T00:55:56.796Z,8.80
2023-01-29T00:58:28.303Z,9.13
2023-01-29T01:01:02.905Z,8.68
2023-01-29T01:03:35.725Z,9.13
2023-01-29T01:06:09.695Z,8.80
2023-01-29T01:08:41.120Z,9.17
2023-01-29T01:11:12.537Z,8.57
2023-01-29T01:13:44.071Z,8.27
2023-01-29T01:16:17.842Z,8.32
2023-01-29T01:18:49.341Z,8.45
2023-01-29T01:21:20.815Z,7.77
2023-01-29T01:23:52.280Z,8.13
2023-01-29T01:26:23.814Z,8.30
2023-01-29T01:28:55.225Z,7.40
2023-01-29T01:31:26.830Z,8.32
2023-01-29T01:33:58.310Z,8.23
2023-01-29T01:36:30.002Z,8.38
2023-01-29T01:39:01.476Z,8.75
2023-01-29T01:41:32.952Z,9.18
2023-01-29T01:44:05.827Z,9.15
2023-01-29T01:46:37.814Z,9.60
2023-01-29T01:49:18.478Z,10.93
2023-01-29T01:51:52.550Z,9.93
2023-01-29T01:54:27.450Z,11.00
2023-01-29T01:57:06.901Z,11.17
2023-01-29T01:59:40.392Z,10.98
2023-01-29T02:02:12.639Z,11.07
2023-01-29T02:07:35.839Z,11.60
2023-01-29T02:10:16.064Z,11.00
2023-01-29T02:12:47.788Z,11.70
2023-01-29T02:15:19.381Z,13.48
2023-01-29T02:17:50.971Z,14.43
2023-01-29T02:20:32.118Z,13.48
2023-01-29T02:23:25.478Z,14.15
2023-01-29T02:26:30.961Z,13.43
2023-01-29T02:29:10.442Z,13.85
2023-01-29T02:31:47.332Z,14.27
2023-01-29T02:34:26.719Z,13.98
2023-01-29T02:37:13.877Z,13.00
2023-01-29T02:40:00.352Z,13.32
2023-01-29T02:42:48.827Z,14.10
2023-01-29T02:45:43.397Z,13.93
2023-01-29T02:48:19.785Z,14.88
2023-01-29T02:50:58.887Z,14.88
2023-01-29T02:53:30.325Z,15.18
2023-01-29T02:56:13.115Z,16.38
2023-01-29T02:58:54.885Z,17.00
2023-01-29T03:01:37.531Z,17.23
2023-01-29T03:04:14.274Z,16.02
2023-01-29T03:06:53.413Z,16.80
2023-01-29T03:09:38.018Z,17.02
2023-01-29T03:12:19.713Z,17.13
2023-01-29T03:14:51.824Z,17.48
2023-01-29T03:17:30.294Z,17.90
2023-01-29T03:20:06.951Z,18.35
2023-01-29T03:22:40.500Z,17.05
2023-01-29T03:25:14.343Z,18.10
2023-01-29T03:27:53.546Z,17.05
2023-01-29T03:30:28.153Z,17.55
2023-01-29T03:33:03.527Z,16.92
2023-01-29T03:35:40.538Z,16.50
2023-01-29T03:38:12.066Z,16.17
2023-01-29T03:40:52.662Z,16.23
2023-01-29T03:43:29.818Z,15.52
2023-01-29T03:46:06.614Z,14.63
2023-01-29T03:48:51.511Z,14.60
2023-01-29T03:51:38.353Z,14.32
2023-01-29T03:54:23.226Z,14.45
2023-01-29T03:57:00.570Z,15.52
2023-01-29T03:59:41.111Z,15.90
2023-01-29T04:02:19.410Z,15.07
2023-01-29T04:04:53.083Z,15.07
2023-01-29T04:07:25.509Z,15.00
2023-01-29T04:10:22.344Z,15.20
2023-01-29T04:13:01.079Z,14.50
2023-01-29T04:15:39.171Z,15.40
2023-01-29T04:18:11.217Z,14.75
2023-01-29T04:20:43.464Z,15.53
2023-01-29T04:23:22.210Z,15.18
2023-01-29T04:26:03.274Z,14.48
2023-01-29T04:28:51.921Z,15.63
2023-01-29T04:31:30.197Z,14.80
2023-01-29T04:34:28.136Z,15.50
2023-01-29T04:37:10.488Z,15.18
2023-01-29T04:39:54.910Z,16.02
2023-01-29T04:42:31.007Z,15.63
2023-01-29T04:45:25.497Z,15.45
2023-01-29T04:48:28.735Z,15.52
2023-01-29T04:51:16.181Z,14.98
2023-01-29T04:53:57.146Z,15.80
2023-01-29T04:56:42.503Z,15.67
2023-01-29T04:59:19.975Z,16.25
2023-01-29T05:01:52.011Z,15.87
2023-01-29T05:04:25.144Z,15.20
2023-01-29T05:06:57.267Z,16.13
2023-01-29T05:09:29.374Z,15.85
2023-01-29T05:12:02.782Z,16.33
2023-01-29T05:14:35.393Z,15.95
2023-01-29T05:17:14.602Z,16.42
2023-01-29T05:19:46.679Z,17.47
2023-01-29T05:22:19.293Z,16.80
2023-01-29T05:24:50.818Z,17.77
2023-01-29T05:27:31.615Z,16.77
2023-01-29T05:30:03.295Z,16.45
2023-01-29T05:32:34.758Z,17.50
2023-01-29T05:35:06.779Z,17.00
2023-01-29T05:37:38.199Z,18.15
2023-01-29T05:40:10.032Z,16.88
2023-01-29T05:42:41.468Z,18.40
2023-01-29T05:45:12.972Z,16.95
2023-01-29T05:47:45.225Z,17.67
2023-01-29T05:50:17.308Z,18.10
2023-01-29T05:52:48.971Z,17.38
2023-01-29T05:55:20.359Z,17.83
2023-01-29T05:57:51.912Z,18.15
2023-01-29T06:00:23.970Z,18.38
2023-01-29T06:02:55.418Z,18.13
2023-01-29T06:05:26.915Z,18.00
2023-01-29T06:07:58.394Z,18.55
2023-01-29T06:10:29.805Z,18.53
2023-01-29T06:13:01.273Z,18.60
2023-01-29T06:15:32.704Z,18.13
2023-01-29T06:18:04.241Z,17.65
2023-01-29T06:20:35.660Z,18.90
2023-01-29T06:23:07.089Z,19.65
2023-01-29T06:25:38.510Z,18.57
2023-01-29T06:28:09.946Z,18.27
2023-01-29T06:30:41.395Z,19.83
2023-01-29T06:33:12.852Z,18.45
2023-01-29T06:35:44.310Z,18.67
2023-01-29T06:38:15.712Z,19.48
2023-01-29T06:40:47.109Z,18.60
2023-01-29T06:43:19.144Z,18.83
2023-01-29T06:45:56.020Z,18.08
2023-01-29T06:48:27.537Z,18.98
2023-01-29T06:51:07.658Z,19.77
2023-01-29T06:53:40.252Z,18.95
2023-01-29T06:56:11.674Z,18.63
2023-01-29T06:58:43.119Z,18.52
2023-01-29T07:01:33.061Z,18.75
2023-01-29T07:04:05.958Z,18.13
2023-01-29T07:06:37.538Z,19.55
2023-01-29T07:09:12.423Z,18.33
2023-01-29T07:11:43.816Z,19.70
2023-01-29T07:14:15.258Z,20.30
2023-01-29T07:16:46.719Z,19.90
2023-01-29T07:19:18.252Z,20.17
2023-01-29T07:21:49.735Z,20.20
2023-01-29T07:24:21.309Z,19.93
2023-01-29T07:26:52.764Z,19.90
2023-01-29T07:29:24.238Z,20.42
2023-01-29T07:31:55.759Z,20.23
2023-01-29T07:34:27.270Z,20.90
2023-01-29T07:36:58.698Z,21.30
2023-01-29T07:39:30.121Z,20.50
2023-01-29T07:42:01.564Z,21.48
2023-01-29T07:44:33.043Z,21.15
2023-01-29T07:47:04.507Z,21.35
2023-01-29T07:49:35.951Z,21.95
2023-01-29T07:52:07.373Z,22.35
2023-01-29T07:54:38.816Z,22.30
2023-01-29T07:57:10.227Z,23.48
2023-01-29T07:59:41.678Z,22.52
2023-01-29T08:02:13.209Z,24.45
2023-01-29T08:04:44.639Z,23.50
2023-01-29T08:07:16.098Z,23.48
2023-01-29T08:09:48.232Z,23.15
2023-01-29T08:12:19.720Z,23.42
2023-01-29T08:14:51.182Z,23.10
2023-01-29T08:17:22.693Z,23.45
2023-01-29T08:19:54.180Z,24.33
2023-01-29T08:22:25.663Z,23.02
2023-01-29T08:25:06.282Z,23.58
2023-01-29T08:27:39.673Z,23.35
2023-01-29T08:30:11.774Z,23.77
2023-01-29T08:32:43.224Z,24.52
2023-01-29T08:35:14.770Z,22.98
2023-01-29T08:37:59.356Z,23.80
2023-01-29T08:40:34.290Z,24.10
2023-01-29T08:43:09.170Z,23.98
2023-01-29T08:45:42.984Z,24.08
2023-01-29T08:48:14.717Z,24.15
2023-01-29T08:50:46.199Z,24.15
2023-01-29T08:53:17.611Z,24.83
2023-01-29T08:55:49.021Z,24.77
2023-01-29T08:58:20.583Z,24.48
2023-01-29T09:00:52.058Z,25.30
2023-01-29T09:03:23.518Z,25.15
2023-01-29T09:05:54.920Z,25.05
2023-01-29T09:08:26.413Z,25.85
2023-01-29T09:10:59.331Z,24.90
2023-01-29T09:13:30.803Z,23.83
2023-01-29T09:16:03.666Z,25.25
2023-01-29T09:18:35.150Z,24.88
2023-01-29T09:21:06.614Z,26.10
2023-01-29T09:23:38.067Z,24.77
2023-01-29T09:26:09.625Z,25.48
2023-01-29T09:28:41.059Z,25.42
2023-01-29T09:31:12.510Z,25.55
2023-01-29T09:33:43.990Z,26.10
2023-01-29T09:36:15.401Z,26.35
2023-01-29T09:38:46.842Z,26.55
2023-01-29T09:41:31.488Z,26.90
2023-01-29T09:44:12.509Z,27.02
2023-01-29T09:46:47.850Z,27.30
2023-01-29T09:49:31.064Z,26.87
2023-01-29T09:52:10.950Z,26.48
2023-01-29T09:54:51.130Z,28.13
2023-01-29T09:57:54.591Z,28.20
2023-01-29T10:00:45.112Z,28.17
2023-01-29T10:03:27.836Z,27.55
2023-01-29T10:06:15.524Z,27.20
2023-01-29T10:09:11.974Z,26.97
2023-01-29T10:11:51.794Z,27.25
2023-01-29T10:14:42.009Z,27.80
2023-01-29T10:17:16.478Z,28.27
2023-01-29T10:20:17.195Z,27.73
2023-01-29T10:23:07.981Z,28.40
2023-01-29T10:25:41.964Z,29.00
2023-01-29T10:28:25.760Z,27.38
2023-01-29T10:31:08.895Z,29.08
2023-01-29T10:33:49.212Z,30.23
2023-01-29T10:36:43.164Z,29.88
2023-01-29T10:39:17.764Z,29.77
2023-01-29T10:41:58.066Z,28.88
2023-01-29T10:44:36.416Z,29.80
2023-01-29T10:47:17.536Z,28.77
2023-01-29T10:50:17.702Z,30.02
2023-01-29T10:53:27.389Z,28.92
2023-01-29T10:56:21.902Z,28.75
2023-01-29T10:59:01.391Z,27.25
2023-01-29T11:01:32.877Z,28.50
2023-01-29T11:04:06.583Z,28.13
2023-01-29T11:06:38.066Z,27.85
2023-01-29T11:12:22.805Z,28.35
2023-01-29T11:14:58.775Z,28.75
2023-01-29T11:17:30.259Z,27.85
2023-01-29T11:20:01.778Z,29.63
2023-01-29T11:22:35.018Z,28.70
2023-01-29T11:25:18.376Z,29.17
2023-01-29T11:27:53.080Z,28.20
2023-01-29T11:30:31.494Z,28.70
2023-01-29T11:33:08.801Z,29.45
2023-01-29T11:35:40.222Z,28.17
2023-01-29T11:38:28.033Z,29.20
2023-01-29T11:41:06.768Z,29.08
2023-01-29T11:43:38.183Z,29.55
2023-01-29T11:46:15.624Z,28.65
2023-01-29T11:48:50.372Z,29.30
2023-01-29T11:51:28.587Z,29.30
2023-01-29T11:54:03.420Z,29.45
2023-01-29T11:56:40.556Z,28.90
2023-01-29T11:59:47.059Z,28.33
2023-01-29T12:02:21.436Z,29.52
2023-01-29T12:04:55.452Z,29.48
2023-01-29T12:07:28.084Z,30.08
2023-01-29T12:10:00.273Z,28.25
2023-01-29T12:12:36.916Z,28.57
2023-01-29T12:15:08.355Z,27.70
2023-01-29T12:17:43.063Z,28.67
2023-01-29T12:20:22.128Z,27.83
2023-01-29T12:23:05.228Z,28.40
2023-01-29T12:25:40.467Z,26.90
2023-01-29T12:28:34.551Z,27.27
2023-01-29T12:31:22.887Z,26.75
2023-01-29T12:34:18.180Z,27.20
2023-01-29T12:36:55.163Z,26.08
2023-01-29T12:39:27.025Z,25.23
2023-01-29T12:42:17.296Z,26.83
2023-01-29T12:44:53.290Z,27.20
2023-01-29T12:47:46.836Z,25.90
2023-01-29T12:50:23.010Z,26.17
2023-01-29T12:53:02.272Z,25.60
2023-01-29T12:55:47.967Z,24.92
2023-01-29T12:58:28.343Z,23.27
2023-01-29T13:01:12.436Z,24.10
2023-01-29T13:04:01.574Z,23.92
2023-01-29T13:06:41.605Z,23.92
2023-01-29T13:09:22.409Z,23.75
2023-01-29T13:11:58.961Z,24.48
2023-01-29T13:14:54.922Z,24.45
2023-01-29T13:17:32.573Z,24.23
2023-01-29T13:20:18.189Z,25.05
2023-01-29T13:22:52.974Z,24.65
2023-01-29T13:25:24.711Z,25.20
2023-01-29T13:27:56.178Z,24.83
2023-01-29T13:30:30.947Z,24.77
2023-01-29T13:36:00.187Z,24.13
2023-01-29T13:38:33.813Z,23.25
2023-01-29T13:41:07.236Z,22.02
2023-01-29T13:43:41.391Z,22.13
2023-01-29T13:46:17.282Z,23.08
2023-01-29T13:48:51.331Z,22.65
2023-01-29T13:51:30.266Z,22.02
2023-01-29T13:54:18.036Z,22.77
2023-01-29T13:56:55.295Z,23.38
2023-01-29T13:59:50.325Z,22.50
2023-01-29T14:02:27.513Z,22.52
2023-01-29T14:05:29.922Z,22.00
2023-01-29T14:08:13.601Z,22.88
2023-01-29T14:10:45.081Z,22.48
2023-01-29T14:13:16.496Z,21.73
2023-01-29T14:15:56.946Z,23.27
2023-01-29T14:18:30.635Z,21.80
2023-01-29T14:21:07.138Z,21.35
2023-01-29T14:23:40.320Z,22.02
2023-01-29T14:26:33.289Z,22.15
2023-01-29T14:29:33.950Z,20.80
2023-01-29T14:32:06.278Z,21.90
2023-01-29T14:35:10.423Z,22.20
2023-01-29T14:37:44.926Z,21.35
2023-01-29T14:40:19.217Z,22.15
2023-01-29T14:42:53.660Z,20.83
2023-01-29T14:45:39.565Z,21.65
2023-01-29T14:48:11.029Z,22.17
2023-01-29T14:50:50.788Z,22.10
2023-01-29T14:53:45.764Z,22.48
2023-01-29T14:56:33.462Z,20.42
2023-01-29T14:59:16.203Z,21.60
2023-01-29T15:01:56.088Z,21.07
2023-01-29T15:04:32.953Z,21.98
2023-01-29T15:07:22.055Z,21.27
2023-01-29T15:10:21.359Z,20.57
2023-01-29T15:13:09.365Z,21.02
2023-01-29T15:16:14.888Z,21.33
2023-01-29T15:18:50.521Z,20.77
2023-01-29T15:21:21.980Z,20.67
2023-01-29T15:24:05.110Z,20.83
2023-01-29T15:26:36.725Z,20.10
2023-01-29T15:29:23.390Z,19.80
2023-01-29T15:31:56.637Z,19.88
2023-01-29T15:34:28.267Z,20.73
2023-01-29T15:36:59.788Z,21.38
2023-01-29T15:39:31.232Z,21.55
2023-01-29T15:42:15.018Z,21.42
2023-01-29T15:44:46.463Z,22.77
2023-01-29T15:47:18.176Z,21.67
2023-01-29T15:49:49.723Z,22.73
2023-01-29T15:52:28.275Z,23.05
2023-01-29T15:55:04.748Z,21.85
2023-01-29T15:57:41.339Z,22.52
2023-01-29T16:00:27.384Z,22.50
2023-01-29T16:02:59.512Z,22.38
2023-01-29T16:05:31.872Z,22.35
2023-01-29T16:08:04.089Z,21.53
2023-01-29T16:10:35.618Z,23.15
2023-01-29T16:13:16.571Z,21.55
2023-01-29T16:16:24.242Z,22.55
2023-01-29T16:19:00.898Z,22.40
2023-01-29T16:21:43.360Z,21.30
2023-01-29T16:24:16.398Z,21.58
2023-01-29T16:26:50.788Z,21.52
2023-01-29T16:29:24.919Z,20.95
2023-01-29T16:31:57.728Z,23.20
2023-01-29T16:34:38.410Z,25.90
2023-01-29T16:37:27.463Z,26.80
2023-01-29T16:39:59.447Z,24.52
2023-01-29T16:42:31.450Z,22.92
2023-01-29T16:45:06.478Z,21.75
2023-01-29T16:47:40.017Z,20.05
2023-01-29T16:50:17.654Z,21.25
2023-01-29T16:52:57.938Z,20.38
2023-01-29T16:55:37.627Z,19.98
2023-01-29T16:58:15.870Z,20.13
2023-01-29T17:00:52.600Z,19.83
2023-01-29T17:03:26.994Z,24.45
2023-01-29T17:05:59.073Z,21.98
2023-01-29T17:08:33.506Z,24.33
2023-01-29T17:11:05.522Z,22.15
2023-01-29T17:13:42.921Z,23.70
2023-01-29T17:16:28.777Z,20.95
2023-01-29T17:19:00.769Z,26.42
2023-01-29T17:21:32.199Z,71.25
2023-01-29T17:24:07.207Z,37.37
2023-01-29T17:26:39.467Z,25.75
2023-01-29T17:29:18.121Z,21.03
2023-01-29T17:31:49.842Z,21.02
2023-01-29T17:34:21.251Z,21.05
2023-01-29T17:36:52.728Z,21.73
2023-01-29T17:39:24.456Z,21.15
2023-01-29T17:41:57.666Z,23.13
2023-01-29T17:44:29.075Z,22.63
2023-01-29T17:47:00.603Z,21.75
2023-01-29T17:49:32.012Z,22.08
2023-01-29T17:52:03.536Z,22.48
2023-01-29T17:54:35.266Z,22.52
2023-01-29T17:57:06.723Z,22.65
2023-01-29T17:59:38.168Z,22.50
2023-01-29T18:02:09.609Z,22.05
2023-01-29T18:05:00.914Z,21.88
2023-01-29T18:07:32.839Z,22.33
2023-01-29T18:10:05.008Z,22.00
2023-01-29T18:12:36.434Z,21.40
2023-01-29T18:15:08.707Z,21.60
2023-01-29T18:17:40.307Z,21.95
2023-01-29T18:20:23.136Z,21.48
2023-01-29T18:22:54.606Z,20.67
2023-01-29T18:25:26.111Z,20.35
2023-01-29T18:27:57.547Z,21.95
2023-01-29T18:30:29.258Z,20.90
2023-01-29T18:33:00.714Z,21.53
2023-01-29T18:35:32.127Z,20.08
2023-01-29T18:38:03.673Z,20.80
2023-01-29T18:40:35.099Z,21.73
2023-01-29T18:43:06.537Z,21.53
2023-01-29T18:45:38.115Z,21.40
2023-01-29T18:48:09.591Z,20.97
2023-01-29T18:50:40.991Z,21.55
2023-01-29T18:53:12.471Z,21.20
2023-01-29T18:55:43.970Z,21.50
2023-01-29T18:58:30.070Z,20.83
2023-01-29T19:01:10.403Z,22.13
2023-01-29T19:03:42.465Z,21.30
2023-01-29T19:06:13.963Z,21.13
2023-01-29T19:08:45.395Z,20.85
2023-01-29T19:11:16.834Z,21.45
2023-01-29T19:13:48.248Z,20.75
2023-01-29T19:16:19.650Z,21.52
2023-01-29T19:18:55.017Z,20.45
2023-01-29T19:21:26.462Z,20.30
2023-01-29T19:23:57.878Z,19.73
2023-01-29T19:26:29.672Z,19.75
2023-01-29T19:29:01.807Z,20.67
2023-01-29T19:31:33.289Z,19.70
2023-01-29T19:34:04.816Z,19.80
2023-01-29T19:36:36.593Z,19.80
2023-01-29T19:39:08.057Z,20.00
2023-01-29T19:41:39.496Z,19.97
2023-01-29T19:44:11.250Z,19.85
2023-01-29T19:46:42.739Z,20.08
2023-01-29T19:49:14.253Z,19.73
2023-01-29T19:51:46.264Z,19.23
2023-01-29T19:54:17.720Z,19.88
2023-01-29T19:56:49.232Z,20.27
2023-01-29T19:59:21.126Z,19.48
2023-01-29T20:01:52.562Z,20.95
2023-01-29T20:04:24.079Z,19.13
2023-01-29T20:06:55.474Z,20.45
2023-01-29T20:09:26.899Z,18.25
2023-01-29T20:11:58.431Z,19.08
2023-01-29T20:14:29.895Z,18.92
2023-01-29T20:17:01.346Z,19.48
2023-01-29T20:19:32.826Z,19.45
2023-01-29T20:22:04.272Z,18.98
2023-01-29T20:24:35.780Z,18.83
2023-01-29T20:27:07.209Z,17.58
2023-01-29T20:29:39.098Z,17.52
2023-01-29T20:32:10.899Z,15.98
2023-01-29T20:34:42.392Z,13.18
2023-01-29T20:37:13.862Z,11.55
2023-01-29T20:39:45.275Z,7.88
2023-01-29T20:42:16.744Z,6.35
2023-01-29T20:44:48.177Z,5.60
2023-01-29T20:47:19.693Z,5.30
2023-01-29T20:49:51.149Z,4.47
2023-01-29T20:52:22.611Z,4.88
2023-01-29T20:54:54.384Z,4.33
2023-01-29T20:57:26.012Z,4.90
2023-01-29T20:59:57.488Z,4.85
2023-01-29T21:02:29.002Z,5.43
2023-01-29T21:05:00.490Z,5.15
2023-01-29T21:07:32.648Z,5.00
2023-01-29T21:10:04.398Z,4.68
2023-01-29T21:12:35.792Z,4.90
2023-01-29T21:15:07.969Z,4.53
2023-01-29T21:17:39.423Z,4.53
2023-01-29T21:20:11.392Z,5.07
2023-01-29T21:22:42.783Z,4.85
2023-01-29T21:25:14.539Z,4.97
2023-01-29T21:27:45.990Z,4.47
2023-01-29T21:30:17.940Z,5.18
2023-01-29T21:32:49.631Z,5.35
2023-01-29T21:35:21.144Z,4.47
2023-01-29T21:37:52.655Z,4.30
2023-01-29T21:40:24.389Z,4.47
2023-01-29T21:42:56.140Z,4.50
2023-01-29T21:45:27.560Z,4.65
2023-01-29T21:47:59.030Z,5.22
2023-01-29T21:50:30.439Z,4.78
2023-01-29T21:53:02.332Z,4.50
2023-01-29T21:55:33.876Z,4.40
2023-01-29T21:58:05.350Z,4.80
2023-01-29T22:00:36.880Z,4.47
2023-01-29T22:03:08.314Z,4.97
2023-01-29T22:05:39.808Z,4.88
2023-01-29T22:08:11.241Z,5.30
2023-01-29T22:10:42.779Z,4.55
2023-01-29T22:13:14.408Z,4.93
2023-01-29T22:15:45.892Z,4.28
2023-01-29T22:18:17.348Z,5.07
2023-01-29T22:20:55.747Z,4.75
2023-01-29T22:23:27.172Z,5.00
2023-01-29T22:26:06.497Z,5.00
2023-01-29T22:28:37.945Z,4.43
2023-01-29T22:31:09.380Z,4.78
2023-01-29T22:33:40.893Z,4.95
2023-01-29T22:36:12.365Z,5.22
2023-01-29T22:38:43.923Z,4.90
2023-01-29T22:41:15.497Z,5.25
2023-01-29T22:43:46.952Z,5.45
2023-01-29T22:46:18.404Z,5.60
2023-01-29T22:48:49.953Z,6.22
2023-01-29T22:51:21.387Z,6.00
2023-01-29T22:53:55.179Z,6.03
2023-01-29T22:56:28.374Z,6.22
2023-01-29T22:59:01.493Z,6.20
2023-01-29T23:01:33.413Z,5.68
2023-01-29T23:04:04.867Z,6.05
2023-01-29T23:06:36.264Z,6.60
2023-01-29T23:09:07.687Z,6.18
2023-01-29T23:11:39.158Z,6.65
2023-01-29T23:14:10.578Z,6.78
2023-01-29T23:16:42.082Z,6.13
2023-01-29T23:19:13.564Z,6.32
2023-01-29T23:21:45.035Z,6.68
2023-01-29T23:24:16.598Z,6.20
2023-01-29T23:26:48.329Z,7.22
2023-01-29T23:29:20.531Z,7.07
2023-01-29T23:31:51.943Z,6.88
2023-01-29T23:34:23.388Z,7.70
2023-01-29T23:36:54.844Z,7.05
2023-01-29T23:39:26.288Z,7.45
2023-01-29T23:41:57.795Z,7.10
2023-01-29T23:44:29.563Z,7.47
2023-01-29T23:47:00.973Z,7.57
2023-01-29T23:49:32.486Z,7.25
2023-01-29T23:52:04.049Z,7.43
2023-01-29T23:54:35.518Z,7.43
2023-01-29T23:57:07.003Z,7.50
2023-01-29T23:59:38.471Z,7.40
